Home > Products > Valid Products > TAF

000
FTUS43 KICT 171200 AAA
TAFRSL
TAF AMD
KRSL 171244Z 1713/1812 23007KT P6SM SCT020
      TEMPO 1713/1715 2SM BR SCT005
     FM171500 35006KT P6SM SCT020
     FM171900 09007KT P6SM SCT035=



000
FTUS43 KICT 171200 AAA
TAFSLN
TAF AMD
KSLN 171238Z 1713/1812 20005KT P6SM SCT010
      TEMPO 1713/1715 2SM BR SCT006
     FM171500 27007KT P6SM SCT030
     FM171900 08008KT P6SM SCT030=



000
FTUS43 KICT 171100
TAFSLN
TAF
KSLN 171129Z 1712/1812 20005KT P6SM SCT010
      TEMPO 1712/1715 4SM BR SCT006
     FM171500 27007KT P6SM SCT030
     FM171900 08008KT P6SM SCT030=



000
FTUS43 KICT 171100
TAFICT
TAF
KICT 171129Z 1712/1812 20006KT 5SM BR SCT010
      TEMPO 1712/1714 2SM BR BKN006
     FM171500 23010KT P6SM SCT040
     FM172000 33007KT P6SM SCT035
     FM180100 09009KT P6SM SCT030=



000
FTUS43 KICT 171100
TAFRSL
TAF
KRSL 171129Z 1712/1812 23007KT P6SM SCT020
     FM171500 35006KT P6SM SCT020
     FM171900 09007KT P6SM SCT035=



000
FTUS43 KICT 171100
TAFCNU
TAF
KCNU 171129Z 1712/1812 22008KT P6SM SCT010 BKN025
      TEMPO 1712/1715 3SM BR BKN004
     FM171500 22008KT P6SM BKN030
     FM171800 25010KT P6SM SCT035
     FM180000 05010KT P6SM SCT030=



000
FTUS43 KICT 171100
TAFHUT
TAF
KHUT 171129Z 1712/1812 20009KT P6SM SCT010 BKN025
      TEMPO 1712/1714 3SM BR BKN004
     FM171500 23010KT P6SM SCT040
     FM171900 33007KT P6SM SCT035
     FM180000 08009KT P6SM SCT030=



000
FTUS43 KICT 171000 AAB
TAFHUT
TAF AMD
KHUT 171022Z 1710/1806 19009KT P6SM SCT010 BKN025
      TEMPO 1710/1713 4SM BR BKN004
     FM171500 20009KT P6SM SCT040
      TEMPO 1715/1718 BKN025
     FM172300 15007KT P6SM SCT035=



000
FTUS43 KICT 171000 AAA
TAFRSL
TAF AMD
KRSL 171001Z 1710/1806 20010KT P6SM SCT030
     FM172100 09007KT P6SM SCT035=



000
FTUS43 KICT 170900 AAB
TAFCNU
TAF AMD
KCNU 170942Z 1710/1806 17005KT P6SM SCT010 BKN025
      TEMPO 1710/1714 4SM BR BKN007
     FM171500 19007KT P6SM VCTS BKN030CB
      TEMPO 1715/1718 OVC020CB
     FM172300 15006KT P6SM SCT035=



000
FTUS43 KICT 170900 AAB
TAFSLN
TAF AMD
KSLN 170920Z 1709/1806 18010KT P6SM SCT010 BKN025
      TEMPO 1709/1713 BKN017
     FM171500 19007KT P6SM SCT040
      TEMPO 1715/1718 BKN025
     FM172100 11006KT P6SM SCT030=



000
FTUS43 KICT 170900 AAB
TAFICT
TAF AMD
KICT 170908Z 1709/1806 18006KT 5SM BR SCT010 BKN030
      TEMPO 1709/1713 3SM BR BKN008
     FM171500 20010KT P6SM SCT040
      TEMPO 1715/1718 BKN025
     FM172300 16008KT P6SM SCT035=



000
FTUS43 KICT 170800 AAA
TAFSLN
TAF AMD
KSLN 170802Z 1708/1806 17007KT P6SM SCT020
      TEMPO 1708/1712 BKN017
     FM171500 19007KT P6SM SCT040
      TEMPO 1715/1718 BKN025
     FM172100 11006KT P6SM SCT030=



000
FTUS43 KICT 170800 AAA
TAFCNU
TAF AMD
KCNU 170800Z 1708/1806 14005KT P6SM VCTS SCT025CB BKN040
      TEMPO 1709/1713 BKN020CB
     FM171500 19007KT P6SM VCTS BKN030CB
      TEMPO 1715/1718 OVC020CB
     FM172300 15006KT P6SM SCT035=



000
FTUS43 KICT 170700 AAA
TAFICT
TAF AMD
KICT 170759Z 1708/1806 17006KT P6SM SCT020
      TEMPO 1709/1713 BKN018
     FM171500 20010KT P6SM SCT040
      TEMPO 1715/1718 BKN025
     FM172300 16008KT P6SM SCT035=



000
FTUS43 KICT 170700 AAA
TAFHUT
TAF AMD
KHUT 170757Z 1708/1806 17008KT P6SM SCT010 BKN025
      TEMPO 1708/1712 6SM BR BKN008
     FM171500 20009KT P6SM SCT040
      TEMPO 1715/1718 BKN025
     FM172300 15007KT P6SM SCT035=



000
FTUS43 KICT 170500
TAFSLN
TAF
KSLN 170522Z 1706/1806 15009KT P6SM SCT040
     FM170800 17008KT 4SM BR VCTS SCT011 BKN020CB
     FM171500 19007KT P6SM SCT040
      TEMPO 1715/1718 BKN025
     FM172100 11006KT P6SM SCT030=



000
FTUS43 KICT 170500
TAFCNU
TAF
KCNU 170522Z 1706/1806 12005KT P6SM SCT025
     FM170800 15006KT 4SM BR VCTS SCT010 OVC020CB
     FM171500 19007KT P6SM VCTS BKN030CB
      TEMPO 1715/1718 OVC020CB
     FM172300 15006KT P6SM SCT035=



000
FTUS43 KICT 170500
TAFHUT
TAF
KHUT 170522Z 1706/1806 15008KT P6SM SKC
     FM170800 17008KT 5SM BR SCT011 BKN020
     FM171500 20009KT P6SM SCT040
      TEMPO 1715/1718 BKN025
     FM172300 15007KT P6SM SCT035=



000
FTUS43 KICT 170500
TAFICT
TAF
KICT 170522Z 1706/1806 15008KT P6SM SKC
     FM170800 17008KT 5SM BR SCT011 BKN020
     FM171500 20010KT P6SM SCT040
      TEMPO 1715/1718 BKN025
     FM172300 16008KT P6SM SCT035=



000
FTUS43 KICT 170500
TAFRSL
TAF
KRSL 170522Z 1706/1806 16008KT P6SM SCT030
      TEMPO 1709/1713 3SM BR SCT010
     FM171500 20008KT P6SM SCT040
     FM172100 09007KT P6SM SCT035=



000
FTUS43 KICT 162300
TAFCNU
TAF
KCNU 162322Z 1700/1724 11005KT P6SM SCT025
     FM170800 15006KT 4SM BR VCTS SCT010 OVC020CB
     FM171500 19007KT P6SM VCTS BKN030CB
      TEMPO 1715/1718 OVC020CB=



000
FTUS43 KICT 162300
TAFRSL
TAF
KRSL 162322Z 1700/1724 16009KT P6SM SCT040
     FM170900 19008KT 4SM BR SCT012
     FM171400 22008KT P6SM SCT030
     FM172100 16008KT P6SM SCT040=



000
FTUS43 KICT 162300
TAFSLN
TAF
KSLN 162322Z 1700/1724 15009KT P6SM SCT040
     FM170600 17008KT 5SM BR VCTS SCT011 BKN020CB
     FM171500 19007KT P6SM SCT040
      TEMPO 1715/1718 BKN025=



000
FTUS43 KICT 162300
TAFHUT
TAF
KHUT 162322Z 1700/1724 15008KT P6SM SKC
     FM170600 17008KT 5SM BR SCT011 BKN020
     FM171500 20009KT P6SM SCT040
      TEMPO 1715/1718 BKN025=



000
FTUS43 KICT 162300
TAFICT
TAF
KICT 162322Z 1700/1724 15008KT P6SM SKC
     FM170600 17008KT 5SM BR SCT011 BKN020
     FM171500 20010KT P6SM SCT040
      TEMPO 1715/1718 BKN025=



000
FTUS43 KICT 161900 AAA
TAFSLN
TAF AMD
KSLN 161909Z 1619/1718 16010KT P6SM SCT050
     FM170700 16008KT P6SM BKN015 OVC025
     FM170900 17007KT P6SM VCTS BKN025CB
     FM171200 16005KT 5SM BR OVC005
     FM171500 15005KT P6SM SCT035=



000
FTUS43 KICT 161700
TAFRSL
TAF
KRSL 161739Z 1618/1718 16012G16KT P6SM SCT025 OVC040
     FM170000 14008KT P6SM SCT025
     FM171000 18008KT P6SM SKC=



000
FTUS43 KICT 161700
TAFHUT
TAF
KHUT 161739Z 1618/1718 12008KT P6SM SCT020 BKN030
     FM162000 15008KT P6SM BKN035
     FM170600 16007KT P6SM SCT015 BKN020
     FM171500 22010KT P6SM SCT015 SCT250=



000
FTUS43 KICT 161700
TAFICT
TAF
KICT 161739Z 1618/1718 09008KT P6SM SCT020 BKN030
     FM162000 13008KT P6SM BKN035
     FM170600 16007KT P6SM SCT015 BKN020
     FM171500 21010KT P6SM SCT015 SCT250=



000
FTUS43 KICT 161700
TAFCNU
TAF
KCNU 161739Z 1618/1718 10008KT P6SM SCT035
     FM170700 10005KT P6SM BKN017
     FM171100 VRB03KT 4SM BR SCT009 BKN017
     FM171700 19007KT P6SM SCT017 BKN035=



000
FTUS43 KICT 161700
TAFSLN
TAF
KSLN 161739Z 1618/1718 16010KT P6SM OVC050
      TEMPO 1620/1624 BKN020 OVC050
     FM170700 16008KT P6SM VCTS BKN015 OVC025CB
     FM171200 16005KT 5SM BR OVC005
     FM171500 15005KT P6SM SCT035=



000
FTUS43 KICT 161100
TAFSLN
TAF
KSLN 161131Z 1612/1712 10006KT P6SM BKN035
     FM161800 15007KT P6SM BKN035
     FM170600 15007KT P6SM BKN025=



000
FTUS43 KICT 161100
TAFRSL
TAF
KRSL 161131Z 1612/1712 10006KT P6SM BKN035
      TEMPO 1612/1616 BKN025
     FM161600 14012KT P6SM BKN035
     FM170100 14006KT P6SM SCT035=



000
FTUS43 KICT 161100
TAFCNU
TAF
KCNU 161131Z 1612/1712 04007KT P6SM OVC030
      TEMPO 1612/1615 BKN017
     FM161500 07010KT P6SM BKN035
     FM170700 10005KT P6SM BKN017=



000
FTUS43 KICT 161100
TAFHUT
TAF
KHUT 161131Z 1612/1712 06007KT P6SM OVC040
      TEMPO 1612/1615 BKN025
     FM161500 08007KT P6SM BKN030
     FM161900 16009KT P6SM BKN035=



000
FTUS43 KICT 161100
TAFICT
TAF
KICT 161131Z 1612/1712 06007KT P6SM OVC022
      TEMPO 1612/1615 BKN016
     FM161500 08008KT P6SM BKN030
     FM162000 16008KT P6SM BKN035
     FM170600 16007KT P6SM BKN020=



000
FTUS43 KICT 161000 AAA
TAFICT
TAF AMD
KICT 161058Z 1611/1706 05007KT P6SM OVC022
      TEMPO 1611/1614 BKN016
     FM161500 15009KT P6SM OVC035=



000
FTUS43 KICT 160900 AAB
TAFRSL
TAF AMD
KRSL 160953Z 1610/1706 07006KT P6SM SCT030
      TEMPO 1611/1614 5SM BR BKN025
     FM161400 14007KT P6SM BKN025
     FM161600 16012KT P6SM BKN035=



000
FTUS43 KICT 160900 AAB
TAFSLN
TAF AMD
KSLN 160952Z 1610/1706 07006KT P6SM SCT025
      TEMPO 1610/1613 5SM BR BKN035
     FM161400 15007KT P6SM BKN035=



000
FTUS43 KICT 160900 AAA
TAFHUT
TAF AMD
KHUT 160951Z 1610/1706 06005KT P6SM SCT030 BKN050
      TEMPO 1610/1613 BKN030
     FM161300 10006KT P6SM OVC025
     FM161500 16009KT P6SM OVC035=



000
FTUS43 KICT 160800 AAA
TAFSLN
TAF AMD
KSLN 160803Z 1608/1706 07006KT P6SM SCT025
      TEMPO 1610/1613 5SM BR BKN020
     FM161400 15007KT P6SM BKN035=



000
FTUS43 KICT 160800 AAA
TAFRSL
TAF AMD
KRSL 160802Z 1608/1706 07006KT P6SM SCT030
      TEMPO 1610/1613 5SM BR BKN020
     FM161300 14007KT P6SM BKN020
     FM161600 16012KT P6SM BKN035=



000
FTUS43 KICT 160500 AAA
TAFCNU
TAF AMD
KCNU 160546Z 1606/1706 04007KT P6SM BKN035 OVC060
      TEMPO 1606/1610 BKN017
     FM161000 07005KT P6SM OVC014
     FM161600 12006KT P6SM BKN035=



000
FTUS43 KICT 160500
TAFSLN
TAF
KSLN 160522Z 1606/1706 06005KT P6SM SCT025
      TEMPO 1608/1612 3SM BR BKN012
     FM161400 15007KT P6SM BKN035=



000
FTUS43 KICT 160500
TAFHUT
TAF
KHUT 160522Z 1606/1706 06005KT P6SM SCT030 BKN060
      TEMPO 1606/1610 BKN030
     FM161200 10006KT P6SM OVC025
     FM161500 16009KT P6SM OVC035=



000
FTUS43 KICT 160500
TAFCNU
TAF
KCNU 160522Z 1606/1706 04007KT P6SM SCT025 OVC060
      TEMPO 1608/1612 BKN025
     FM161200 07005KT P6SM OVC020
     FM161600 12006KT P6SM BKN035=



000
FTUS43 KICT 160500
TAFRSL
TAF
KRSL 160522Z 1606/1706 08005KT P6SM SCT030
      TEMPO 1608/1612 3SM BR BKN010
     FM161300 14007KT P6SM BKN020
     FM161600 16012KT P6SM BKN035=



000
FTUS43 KICT 160500
TAFICT
TAF
KICT 160522Z 1606/1706 05007KT P6SM SCT025 BKN060
      TEMPO 1608/1612 BKN025
     FM161200 09006KT P6SM OVC020
     FM161500 15009KT P6SM OVC035=



000
FTUS43 KICT 152300
TAFICT
TAF
KICT 152322Z 1600/1624 03011KT P6SM SCT020 BKN060
      TEMPO 1600/1603 BKN020
     FM160600 06007KT P6SM BKN025
     FM161300 14007KT P6SM SCT035
      TEMPO 1613/1617 BKN025=



000
FTUS43 KICT 152300
TAFHUT
TAF
KHUT 152322Z 1600/1624 03010KT P6SM SCT020 BKN060
      TEMPO 1600/1602 BKN020
     FM160600 07005KT P6SM BKN025
     FM161300 15007KT P6SM SCT035
      TEMPO 1613/1617 BKN025=



000
FTUS43 KICT 152300
TAFCNU
TAF
KCNU 152322Z 1600/1624 02010KT P6SM VCSH SCT025 BKN060
      TEMPO 1602/1606 BKN025
     FM160600 05007KT P6SM BKN020
     FM161400 10006KT P6SM SCT035
      TEMPO 1614/1616 BKN025=



000
FTUS43 KICT 152300
TAFRSL
TAF
KRSL 152322Z 1600/1624 05009KT P6SM SCT040
     FM160600 10005KT P6SM SKC
     FM161200 17010KT P6SM SCT030
      TEMPO 1612/1615 BKN025=



000
FTUS43 KICT 152300
TAFSLN
TAF
KSLN 152322Z 1600/1624 06007KT P6SM SCT035
      TEMPO 1600/1602 BKN035
     FM161400 15007KT P6SM SCT035=



000
FTUS43 KICT 152100 AAB
TAFICT
TAF AMD
KICT 152138Z 1522/1618 01014KT P6SM SCT012 BKN035
      TEMPO 1522/1524 BKN012
     FM160000 04012KT P6SM VCSH OVC025
     FM160600 08010KT P6SM OVC015=



000
FTUS43 KICT 152000 AAA
TAFICT
TAF AMD
KICT 152050Z 1521/1618 01014KT P6SM SCT010 BKN035
      TEMPO 1521/1523 BKN010
     FM160000 04012KT P6SM VCSH OVC025
     FM160600 08010KT P6SM OVC015=



000
FTUS43 KICT 152000 AAA
TAFCNU
TAF AMD
KCNU 152032Z 1521/1618 01013KT P6SM VCTS SCT040CB BKN080
      TEMPO 1521/1523 5SM -TSRA BR BKN040CB
     FM160100 03011KT P6SM VCSH OVC025
     FM160700 06009KT P6SM BKN025=



000
FTUS43 KICT 151700
TAFRSL
TAF
KRSL 151734Z 1518/1618 01012KT P6SM BKN015
      TEMPO 1518/1520 SCT015
     FM152000 04014KT P6SM BKN035
     FM160300 08006KT P6SM SCT020 SCT080
     FM161400 08008KT P6SM BKN035=



000
FTUS43 KICT 151700
TAFHUT
TAF
KHUT 151734Z 1518/1618 01014G20KT P6SM SCT010 BKN025
      TEMPO 1518/1520 BKN010
     FM152300 04011KT P6SM VCSH OVC020
     FM160600 08011KT P6SM SCT012 BKN025=



000
FTUS43 KICT 151700
TAFSLN
TAF
KSLN 151734Z 1518/1618 01013KT P6SM SCT015 BKN030
      TEMPO 1518/1520 BKN015
     FM152000 04014KT P6SM BKN040
     FM160300 07007KT P6SM SCT020 SCT080
     FM161400 08008KT P6SM BKN035=



000
FTUS43 KICT 151700
TAFCNU
TAF
KCNU 151734Z 1518/1618 24012KT P6SM SCT035 SCT120
     FM152100 01013KT P6SM VCTS SCT040CB BKN080
     FM160100 03011KT P6SM VCSH OVC025
     FM160700 06009KT P6SM BKN025=



000
FTUS43 KICT 151700
TAFICT
TAF
KICT 151734Z 1518/1618 25014KT P6SM SCT025 BKN035
     FM151900 01014KT P6SM BKN030
     FM160000 04012KT P6SM VCSH OVC025
     FM160600 08010KT P6SM OVC015=



000
FTUS43 KICT 151500 AAC
TAFRSL
TAF AMD
KRSL 151551Z 1516/1612 36013KT P6SM SCT006 BKN010
      TEMPO 1516/1518 4SM BR BKN006
     FM151900 04014KT P6SM BKN035
     FM160400 08006KT P6SM SCT020 BKN080=



000
FTUS43 KICT 151400 AAA
TAFHUT
TAF AMD
KHUT 151446Z 1515/1612 23012KT P6SM SCT100 BKN200
     FM151800 01014G20KT P6SM VCSH SCT010 BKN025
      TEMPO 1518/1521 3SM BR BKN010
     FM152300 04011KT P6SM VCSH OVC020
     FM160600 08011KT P6SM BKN012=



000
FTUS43 KICT 151300 AAB
TAFRSL
TAF AMD
KRSL 151334Z 1514/1612 36013KT 3SM BR SCT006 BKN010
      TEMPO 1514/1517 1/2SM FG BKN002
     FM151900 04014KT P6SM BKN035
     FM160400 08006KT P6SM SCT020 BKN080=



000
FTUS43 KICT 151200 AAA
TAFRSL
TAF AMD
KRSL 151247Z 1513/1612 36013KT P6SM SCT012 BKN025
      TEMPO 1513/1517 5SM BR BKN006
     FM151900 04014KT P6SM BKN035
     FM160400 08006KT P6SM SCT020 BKN080=



000
FTUS43 KICT 151100
TAFRSL
TAF
KRSL 151137Z 1512/1612 32010KT P6SM SCT030 BKN080
     FM151300 01014G20KT P6SM VCSH SCT015 BKN030
      TEMPO 1513/1517 BKN012
     FM151900 04014KT P6SM BKN035
     FM160400 08006KT P6SM SCT020 BKN080=



000
FTUS43 KICT 151100
TAFSLN
TAF
KSLN 151137Z 1512/1612 19010KT P6SM BKN080
     FM151400 36013KT P6SM VCSH SCT015 BKN030
      TEMPO 1514/1518 BKN018
     FM152000 04014KT P6SM BKN040
     FM160400 07007KT P6SM SCT020 BKN080=



000
FTUS43 KICT 151100
TAFHUT
TAF
KHUT 151137Z 1512/1612 19012KT P6SM BKN200
     FM151400 23012KT P6SM SCT100 BKN200
     FM151800 01014G20KT P6SM VCSH BKN025
     FM152300 04011KT P6SM VCSH OVC020
     FM160600 08011KT P6SM BKN012=



000
FTUS43 KICT 151100
TAFICT
TAF
KICT 151137Z 1512/1612 19012KT P6SM BKN200
     FM151500 23013KT P6SM SCT120 BKN200
     FM151900 01014KT P6SM VCSH BKN030
     FM160000 04012KT P6SM VCSH OVC018
     FM160600 08010KT P6SM OVC013=



000
FTUS43 KICT 151100
TAFCNU
TAF
KCNU 151137Z 1512/1612 19011KT P6SM BKN100
     FM151400 21013KT P6SM BKN120
     FM152100 01013KT P6SM VCSH BKN040
     FM160100 03011KT P6SM VCSH OVC030
     FM160700 06009KT P6SM BKN025=



000
FTUS43 KICT 150500
TAFRSL
TAF
KRSL 150522Z 1506/1606 21010KT P6SM BKN080
     FM151000 35009KT P6SM VCSH OVC040
     FM151300 01013KT P6SM VCSH OVC020
     FM152000 04010KT P6SM OVC030=



000
FTUS43 KICT 150500
TAFICT
TAF
KICT 150522Z 1506/1606 17013KT P6SM BKN200
     FM151300 22010KT P6SM BKN130
     FM151900 36010KT P6SM VCSH OVC040
     FM160000 04009KT P6SM VCSH OVC025=



000
FTUS43 KICT 150500
TAFCNU
TAF
KCNU 150522Z 1506/1606 17010KT P6SM BKN100
     FM151400 21010KT P6SM VCSH BKN120
     FM152000 35009KT P6SM VCSH OVC050
     FM160100 03008KT P6SM VCSH OVC030=



000
FTUS43 KICT 150500
TAFSLN
TAF
KSLN 150522Z 1506/1606 18010KT P6SM BKN080
     FM150800 22009KT P6SM VCSH BKN050
     FM151400 36011KT P6SM VCSH OVC025
     FM152200 04010KT P6SM OVC040=



000
FTUS43 KICT 150500
TAFHUT
TAF
KHUT 150522Z 1506/1606 18012KT P6SM BKN200
     FM151300 23009KT P6SM BKN130
     FM151800 36010KT P6SM VCSH OVC030
     FM152300 04009KT P6SM VCSH OVC025=



000
FTUS43 KICT 142300
TAFHUT
TAF
KHUT 142322Z 1500/1524 18016G23KT P6SM SCT200
     FM150100 17010KT P6SM SCT200
     FM151400 23009KT P6SM BKN130
     FM151800 35010KT P6SM VCSH OVC030=



000
FTUS43 KICT 142300
TAFCNU
TAF
KCNU 142322Z 1500/1524 16009KT P6SM BKN070
     FM151400 21011KT P6SM VCSH BKN120
     FM152000 34009KT P6SM VCSH OVC050=



000
FTUS43 KICT 142300
TAFICT
TAF
KICT 142322Z 1500/1524 17015G22KT P6SM SCT200
     FM150100 17010KT P6SM SCT200
     FM151400 22011KT P6SM BKN130
     FM151900 35010KT P6SM VCSH OVC040=



000
FTUS43 KICT 142300
TAFSLN
TAF
KSLN 142322Z 1500/1524 14010KT P6SM VCSH BKN050
     FM150800 22010KT P6SM VCSH BKN050
     FM151300 34011KT P6SM VCSH OVC025=



000
FTUS43 KICT 142300
TAFRSL
TAF
KRSL 142322Z 1500/1524 15011KT P6SM VCSH OVC050
     FM150600 22010KT P6SM VCSH OVC050
     FM151100 36012KT P6SM VCSH OVC020=



000
FTUS43 KICT 141700
TAFSLN
TAF
KSLN 141720Z 1418/1518 17014G19KT P6SM FEW050
     FM150200 16012KT P6SM FEW150
     FM151500 01015G22KT P6SM OVC015=



000
FTUS43 KICT 141700
TAFRSL
TAF
KRSL 141720Z 1418/1518 17016G22KT P6SM FEW050
     FM150200 16012KT P6SM FEW150
     FM151200 01015G22KT P6SM OVC015=



000
FTUS43 KICT 141700
TAFICT
TAF
KICT 141720Z 1418/1518 17013G19KT P6SM BKN040
     FM142000 17013G19KT P6SM SCT040
     FM150100 17010KT P6SM FEW040
     FM151500 20010KT P6SM SCT250=



000
FTUS43 KICT 141700
TAFHUT
TAF
KHUT 141720Z 1418/1518 17014G20KT P6SM FEW050
     FM150100 17010KT P6SM FEW040
     FM151400 21010KT P6SM SCT250=



000
FTUS43 KICT 141700
TAFCNU
TAF
KCNU 141720Z 1418/1518 17010KT P6SM BKN050
     FM150200 16010KT P6SM SCT040
     FM151400 19012KT P6SM BKN100=



    US Dept of Commerce
    National Oceanic and Atmospheric Administration
    National Weather Service
    1325 East West Highway
    Silver Spring, MD 20910
    Page Author: NWS Internet Services Team
Disclaimer
Information Quality
Credits
Glossary
Privacy Policy
Freedom of Information Act (FOIA)
About Us
Career Opportunities